sensor_id;sensor_type;location;lat;lon;timestamp;P1;durP1;ratioP1;P2;durP2;ratioP2
19814;SDS011;10067;53.092;8.800;2023-04-15T00:01:40;13.00;;;10.75;;
19814;SDS011;10067;53.092;8.800;2023-04-15T00:04:08;15.55;;;11.52;;
19814;SDS011;10067;53.092;8.800;2023-04-15T00:06:35;16.88;;;10.95;;
19814;SDS011;10067;53.092;8.800;2023-04-15T00:09:02;14.30;;;10.88;;
19814;SDS011;10067;53.092;8.800;2023-04-15T00:11:28;14.75;;;11.35;;
19814;SDS011;10067;53.092;8.800;2023-04-15T00:13:55;17.17;;;11.50;;
19814;SDS011;10067;53.092;8.800;2023-04-15T00:16:22;17.08;;;12.18;;
19814;SDS011;10067;53.092;8.800;2023-04-15T00:18:49;17.65;;;12.07;;
19814;SDS011;10067;53.092;8.800;2023-04-15T00:21:17;19.33;;;12.70;;
19814;SDS011;10067;53.092;8.800;2023-04-15T00:23:43;16.08;;;12.32;;
19814;SDS011;10067;53.092;8.800;2023-04-15T00:26:13;16.70;;;11.98;;
19814;SDS011;10067;53.092;8.800;2023-04-15T00:28:40;14.50;;;11.38;;
19814;SDS011;10067;53.092;8.800;2023-04-15T00:31:06;16.33;;;11.83;;
19814;SDS011;10067;53.092;8.800;2023-04-15T00:33:33;15.82;;;10.98;;
19814;SDS011;10067;53.092;8.800;2023-04-15T00:36:00;16.27;;;10.82;;
19814;SDS011;10067;53.092;8.800;2023-04-15T00:38:29;15.80;;;11.70;;
19814;SDS011;10067;53.092;8.800;2023-04-15T00:40:55;15.13;;;10.55;;
19814;SDS011;10067;53.092;8.800;2023-04-15T00:43:22;16.08;;;11.88;;
19814;SDS011;10067;53.092;8.800;2023-04-15T00:45:50;12.55;;;9.98;;
19814;SDS011;10067;53.092;8.800;2023-04-15T00:48:17;14.50;;;10.98;;
19814;SDS011;10067;53.092;8.800;2023-04-15T00:50:44;14.32;;;11.15;;
19814;SDS011;10067;53.092;8.800;2023-04-15T00:53:10;17.15;;;11.85;;
19814;SDS011;10067;53.092;8.800;2023-04-15T00:55:38;16.75;;;11.88;;
19814;SDS011;10067;53.092;8.800;2023-04-15T00:58:05;17.15;;;11.73;;
19814;SDS011;10067;53.092;8.800;2023-04-15T01:00:31;15.55;;;11.38;;
19814;SDS011;10067;53.092;8.800;2023-04-15T01:02:58;17.67;;;12.32;;
19814;SDS011;10067;53.092;8.800;2023-04-15T01:05:25;16.90;;;13.02;;
19814;SDS011;10067;53.092;8.800;2023-04-15T01:07:52;15.45;;;11.93;;
19814;SDS011;10067;53.092;8.800;2023-04-15T01:10:18;17.60;;;12.40;;
19814;SDS011;10067;53.092;8.800;2023-04-15T01:12:46;15.80;;;12.35;;
19814;SDS011;10067;53.092;8.800;2023-04-15T01:15:13;16.20;;;12.57;;
19814;SDS011;10067;53.092;8.800;2023-04-15T01:17:40;20.97;;;13.83;;
19814;SDS011;10067;53.092;8.800;2023-04-15T01:20:07;19.45;;;13.60;;
19814;SDS011;10067;53.092;8.800;2023-04-15T01:22:36;19.42;;;13.98;;
19814;SDS011;10067;53.092;8.800;2023-04-15T01:25:04;17.48;;;13.80;;
19814;SDS011;10067;53.092;8.800;2023-04-15T01:27:33;17.75;;;13.75;;
19814;SDS011;10067;53.092;8.800;2023-04-15T01:30:00;19.58;;;14.45;;
19814;SDS011;10067;53.092;8.800;2023-04-15T01:32:29;18.67;;;14.10;;
19814;SDS011;10067;53.092;8.800;2023-04-15T01:34:55;19.95;;;14.75;;
19814;SDS011;10067;53.092;8.800;2023-04-15T01:37:22;19.80;;;15.00;;
19814;SDS011;10067;53.092;8.800;2023-04-15T01:39:49;19.77;;;13.90;;
19814;SDS011;10067;53.092;8.800;2023-04-15T01:42:15;19.83;;;14.90;;
19814;SDS011;10067;53.092;8.800;2023-04-15T01:44:43;20.97;;;15.43;;
19814;SDS011;10067;53.092;8.800;2023-04-15T01:47:10;20.33;;;14.43;;
19814;SDS011;10067;53.092;8.800;2023-04-15T01:49:37;18.92;;;14.35;;
19814;SDS011;10067;53.092;8.800;2023-04-15T01:52:03;20.55;;;15.32;;
19814;SDS011;10067;53.092;8.800;2023-04-15T01:54:30;23.33;;;15.27;;
19814;SDS011;10067;53.092;8.800;2023-04-15T01:56:56;18.80;;;14.15;;
19814;SDS011;10067;53.092;8.800;2023-04-15T01:59:23;21.38;;;14.45;;
19814;SDS011;10067;53.092;8.800;2023-04-15T02:01:51;20.63;;;14.35;;
19814;SDS011;10067;53.092;8.800;2023-04-15T02:04:17;19.70;;;13.93;;
19814;SDS011;10067;53.092;8.800;2023-04-15T02:06:44;19.85;;;13.43;;
19814;SDS011;10067;53.092;8.800;2023-04-15T02:09:10;22.05;;;13.40;;
19814;SDS011;10067;53.092;8.800;2023-04-15T02:11:37;20.60;;;14.30;;
19814;SDS011;10067;53.092;8.800;2023-04-15T02:14:03;18.87;;;13.27;;
19814;SDS011;10067;53.092;8.800;2023-04-15T02:16:30;23.13;;;14.02;;
19814;SDS011;10067;53.092;8.800;2023-04-15T02:18:58;19.85;;;13.43;;
19814;SDS011;10067;53.092;8.800;2023-04-15T02:21:25;18.00;;;12.75;;
19814;SDS011;10067;53.092;8.800;2023-04-15T02:23:51;19.70;;;13.73;;
19814;SDS011;10067;53.092;8.800;2023-04-15T02:26:18;19.13;;;13.30;;
19814;SDS011;10067;53.092;8.800;2023-04-15T02:28:46;18.65;;;12.95;;
19814;SDS011;10067;53.092;8.800;2023-04-15T02:31:12;19.88;;;13.65;;
19814;SDS011;10067;53.092;8.800;2023-04-15T02:33:39;18.20;;;13.37;;
19814;SDS011;10067;53.092;8.800;2023-04-15T02:36:07;20.08;;;13.88;;
19814;SDS011;10067;53.092;8.800;2023-04-15T02:38:35;20.90;;;14.10;;
19814;SDS011;10067;53.092;8.800;2023-04-15T02:41:02;19.23;;;13.98;;
19814;SDS011;10067;53.092;8.800;2023-04-15T02:43:28;20.23;;;13.75;;
19814;SDS011;10067;53.092;8.800;2023-04-15T02:45:55;18.55;;;13.68;;
19814;SDS011;10067;53.092;8.800;2023-04-15T02:48:22;17.85;;;14.43;;
19814;SDS011;10067;53.092;8.800;2023-04-15T02:50:48;16.90;;;13.23;;
19814;SDS011;10067;53.092;8.800;2023-04-15T02:53:16;18.80;;;14.32;;
19814;SDS011;10067;53.092;8.800;2023-04-15T02:55:44;20.83;;;14.13;;
19814;SDS011;10067;53.092;8.800;2023-04-15T02:58:10;19.00;;;13.77;;
19814;SDS011;10067;53.092;8.800;2023-04-15T03:00:36;18.10;;;13.73;;
19814;SDS011;10067;53.092;8.800;2023-04-15T03:03:03;16.40;;;12.68;;
19814;SDS011;10067;53.092;8.800;2023-04-15T03:05:30;16.13;;;13.10;;
19814;SDS011;10067;53.092;8.800;2023-04-15T03:07:56;18.30;;;13.55;;
19814;SDS011;10067;53.092;8.800;2023-04-15T03:10:24;20.88;;;14.57;;
19814;SDS011;10067;53.092;8.800;2023-04-15T03:12:51;18.60;;;13.75;;
19814;SDS011;10067;53.092;8.800;2023-04-15T03:15:17;20.38;;;14.60;;
19814;SDS011;10067;53.092;8.800;2023-04-15T03:17:44;19.17;;;14.15;;
19814;SDS011;10067;53.092;8.800;2023-04-15T03:20:10;20.10;;;14.77;;
19814;SDS011;10067;53.092;8.800;2023-04-15T03:22:36;17.52;;;14.15;;
19814;SDS011;10067;53.092;8.800;2023-04-15T03:25:03;23.65;;;15.65;;
19814;SDS011;10067;53.092;8.800;2023-04-15T03:27:31;18.17;;;13.82;;
19814;SDS011;10067;53.092;8.800;2023-04-15T03:29:58;19.20;;;14.87;;
19814;SDS011;10067;53.092;8.800;2023-04-15T03:32:24;21.90;;;15.48;;
19814;SDS011;10067;53.092;8.800;2023-04-15T03:34:51;19.07;;;14.47;;
19814;SDS011;10067;53.092;8.800;2023-04-15T03:37:17;20.95;;;15.02;;
19814;SDS011;10067;53.092;8.800;2023-04-15T03:39:44;22.98;;;15.05;;
19814;SDS011;10067;53.092;8.800;2023-04-15T03:42:10;21.83;;;15.15;;
19814;SDS011;10067;53.092;8.800;2023-04-15T03:44:39;18.53;;;13.77;;
19814;SDS011;10067;53.092;8.800;2023-04-15T03:47:05;19.90;;;15.25;;
19814;SDS011;10067;53.092;8.800;2023-04-15T03:49:31;18.88;;;14.10;;
19814;SDS011;10067;53.092;8.800;2023-04-15T03:51:58;20.80;;;13.60;;
19814;SDS011;10067;53.092;8.800;2023-04-15T03:54:24;18.60;;;13.93;;
19814;SDS011;10067;53.092;8.800;2023-04-15T03:56:51;17.77;;;13.80;;
19814;SDS011;10067;53.092;8.800;2023-04-15T03:59:17;19.52;;;13.75;;
19814;SDS011;10067;53.092;8.800;2023-04-15T04:01:45;18.87;;;13.23;;
19814;SDS011;10067;53.092;8.800;2023-04-15T04:04:11;21.35;;;13.80;;
19814;SDS011;10067;53.092;8.800;2023-04-15T04:06:38;21.42;;;15.35;;
19814;SDS011;10067;53.092;8.800;2023-04-15T04:09:05;27.00;;;15.60;;
19814;SDS011;10067;53.092;8.800;2023-04-15T04:11:31;21.67;;;14.43;;
19814;SDS011;10067;53.092;8.800;2023-04-15T04:13:58;21.40;;;15.63;;
19814;SDS011;10067;53.092;8.800;2023-04-15T04:16:24;26.97;;;17.33;;
19814;SDS011;10067;53.092;8.800;2023-04-15T04:18:52;22.23;;;16.13;;
19814;SDS011;10067;53.092;8.800;2023-04-15T04:21:18;27.73;;;17.60;;
19814;SDS011;10067;53.092;8.800;2023-04-15T04:23:45;27.10;;;18.45;;
19814;SDS011;10067;53.092;8.800;2023-04-15T04:26:11;28.00;;;17.77;;
19814;SDS011;10067;53.092;8.800;2023-04-15T04:28:38;30.77;;;18.77;;
19814;SDS011;10067;53.092;8.800;2023-04-15T04:31:05;29.92;;;19.35;;
19814;SDS011;10067;53.092;8.800;2023-04-15T04:33:31;28.80;;;18.83;;
19814;SDS011;10067;53.092;8.800;2023-04-15T04:35:59;28.05;;;19.55;;
19814;SDS011;10067;53.092;8.800;2023-04-15T04:38:26;27.97;;;18.90;;
19814;SDS011;10067;53.092;8.800;2023-04-15T04:40:52;29.70;;;20.07;;
19814;SDS011;10067;53.092;8.800;2023-04-15T04:43:19;31.43;;;20.07;;
19814;SDS011;10067;53.092;8.800;2023-04-15T04:45:45;33.50;;;21.50;;
19814;SDS011;10067;53.092;8.800;2023-04-15T04:48:12;30.87;;;20.53;;
19814;SDS011;10067;53.092;8.800;2023-04-15T04:50:38;31.77;;;21.20;;
19814;SDS011;10067;53.092;8.800;2023-04-15T04:53:06;30.10;;;20.10;;
19814;SDS011;10067;53.092;8.800;2023-04-15T04:55:33;31.85;;;20.88;;
19814;SDS011;10067;53.092;8.800;2023-04-15T04:58:01;31.60;;;21.20;;
19814;SDS011;10067;53.092;8.800;2023-04-15T05:00:27;32.13;;;20.38;;
19814;SDS011;10067;53.092;8.800;2023-04-15T05:02:54;32.27;;;21.47;;
19814;SDS011;10067;53.092;8.800;2023-04-15T05:05:21;30.83;;;21.98;;
19814;SDS011;10067;53.092;8.800;2023-04-15T05:07:47;35.10;;;21.98;;
19814;SDS011;10067;53.092;8.800;2023-04-15T05:10:16;29.58;;;21.33;;
19814;SDS011;10067;53.092;8.800;2023-04-15T05:12:42;33.58;;;22.17;;
19814;SDS011;10067;53.092;8.800;2023-04-15T05:15:09;29.75;;;20.55;;
19814;SDS011;10067;53.092;8.800;2023-04-15T05:17:36;32.08;;;22.23;;
19814;SDS011;10067;53.092;8.800;2023-04-15T05:20:03;32.05;;;21.63;;
19814;SDS011;10067;53.092;8.800;2023-04-15T05:22:29;32.65;;;22.73;;
19814;SDS011;10067;53.092;8.800;2023-04-15T05:24:55;33.33;;;22.33;;
19814;SDS011;10067;53.092;8.800;2023-04-15T05:27:23;32.08;;;22.08;;
19814;SDS011;10067;53.092;8.800;2023-04-15T05:29:50;33.33;;;21.75;;
19814;SDS011;10067;53.092;8.800;2023-04-15T05:32:16;32.58;;;21.88;;
19814;SDS011;10067;53.092;8.800;2023-04-15T05:34:43;31.25;;;21.83;;
19814;SDS011;10067;53.092;8.800;2023-04-15T05:37:09;31.23;;;22.33;;
19814;SDS011;10067;53.092;8.800;2023-04-15T05:39:36;31.23;;;22.38;;
19814;SDS011;10067;53.092;8.800;2023-04-15T05:42:02;31.45;;;21.70;;
19814;SDS011;10067;53.092;8.800;2023-04-15T05:44:31;32.50;;;21.90;;
19814;SDS011;10067;53.092;8.800;2023-04-15T05:46:57;28.55;;;21.65;;
19814;SDS011;10067;53.092;8.800;2023-04-15T05:49:24;31.58;;;22.60;;
19814;SDS011;10067;53.092;8.800;2023-04-15T05:51:51;32.25;;;22.35;;
19814;SDS011;10067;53.092;8.800;2023-04-15T05:54:18;30.25;;;22.70;;
19814;SDS011;10067;53.092;8.800;2023-04-15T05:56:46;32.22;;;21.45;;
19814;SDS011;10067;53.092;8.800;2023-04-15T05:59:12;31.98;;;21.88;;
19814;SDS011;10067;53.092;8.800;2023-04-15T06:01:40;32.43;;;21.93;;
19814;SDS011;10067;53.092;8.800;2023-04-15T06:04:07;30.30;;;21.70;;
19814;SDS011;10067;53.092;8.800;2023-04-15T06:06:33;30.83;;;22.48;;
19814;SDS011;10067;53.092;8.800;2023-04-15T06:09:00;30.58;;;22.52;;
19814;SDS011;10067;53.092;8.800;2023-04-15T06:11:26;28.65;;;21.00;;
19814;SDS011;10067;53.092;8.800;2023-04-15T06:13:53;29.30;;;21.45;;
19814;SDS011;10067;53.092;8.800;2023-04-15T06:16:19;30.65;;;21.80;;
19814;SDS011;10067;53.092;8.800;2023-04-15T06:18:47;30.52;;;22.60;;
19814;SDS011;10067;53.092;8.800;2023-04-15T06:21:13;33.10;;;23.70;;
19814;SDS011;10067;53.092;8.800;2023-04-15T06:23:40;30.80;;;22.92;;
19814;SDS011;10067;53.092;8.800;2023-04-15T06:26:06;30.83;;;22.60;;
19814;SDS011;10067;53.092;8.800;2023-04-15T06:28:33;33.40;;;22.65;;
19814;SDS011;10067;53.092;8.800;2023-04-15T06:30:59;30.42;;;20.92;;
19814;SDS011;10067;53.092;8.800;2023-04-15T06:33:26;31.13;;;21.52;;
19814;SDS011;10067;53.092;8.800;2023-04-15T06:35:54;29.42;;;21.80;;
19814;SDS011;10067;53.092;8.800;2023-04-15T06:38:20;31.67;;;22.75;;
19814;SDS011;10067;53.092;8.800;2023-04-15T06:40:47;31.15;;;21.90;;
19814;SDS011;10067;53.092;8.800;2023-04-15T06:43:13;33.35;;;22.52;;
19814;SDS011;10067;53.092;8.800;2023-04-15T06:45:41;31.35;;;21.85;;
19814;SDS011;10067;53.092;8.800;2023-04-15T06:48:08;27.17;;;20.23;;
19814;SDS011;10067;53.092;8.800;2023-04-15T06:50:35;29.63;;;22.08;;
19814;SDS011;10067;53.092;8.800;2023-04-15T06:53:03;26.80;;;20.15;;
19814;SDS011;10067;53.092;8.800;2023-04-15T06:55:30;32.00;;;22.02;;
19814;SDS011;10067;53.092;8.800;2023-04-15T06:57:58;31.52;;;21.90;;
19814;SDS011;10067;53.092;8.800;2023-04-15T07:00:24;29.35;;;21.98;;
19814;SDS011;10067;53.092;8.800;2023-04-15T07:02:52;29.70;;;22.55;;
19814;SDS011;10067;53.092;8.800;2023-04-15T07:05:19;31.05;;;21.85;;
19814;SDS011;10067;53.092;8.800;2023-04-15T07:07:45;27.75;;;21.48;;
19814;SDS011;10067;53.092;8.800;2023-04-15T07:10:13;29.17;;;21.35;;
19814;SDS011;10067;53.092;8.800;2023-04-15T07:12:40;29.33;;;21.55;;
19814;SDS011;10067;53.092;8.800;2023-04-15T07:15:06;29.08;;;21.33;;
19814;SDS011;10067;53.092;8.800;2023-04-15T07:17:33;27.45;;;20.20;;
19814;SDS011;10067;53.092;8.800;2023-04-15T07:19:59;27.08;;;20.52;;
19814;SDS011;10067;53.092;8.800;2023-04-15T07:22:26;26.58;;;20.23;;
19814;SDS011;10067;53.092;8.800;2023-04-15T07:24:52;25.77;;;20.05;;
19814;SDS011;10067;53.092;8.800;2023-04-15T07:27:20;27.45;;;19.98;;
19814;SDS011;10067;53.092;8.800;2023-04-15T07:29:46;26.13;;;19.70;;
19814;SDS011;10067;53.092;8.800;2023-04-15T07:32:13;25.55;;;19.92;;
19814;SDS011;10067;53.092;8.800;2023-04-15T07:34:39;26.27;;;19.42;;
19814;SDS011;10067;53.092;8.800;2023-04-15T07:37:07;23.77;;;19.08;;
19814;SDS011;10067;53.092;8.800;2023-04-15T07:39:33;22.83;;;19.35;;
19814;SDS011;10067;53.092;8.800;2023-04-15T07:42:00;22.95;;;18.60;;
19814;SDS011;10067;53.092;8.800;2023-04-15T07:44:27;23.02;;;19.45;;
19814;SDS011;10067;53.092;8.800;2023-04-15T07:46:54;20.77;;;18.25;;
19814;SDS011;10067;53.092;8.800;2023-04-15T07:49:20;22.70;;;18.17;;
19814;SDS011;10067;53.092;8.800;2023-04-15T07:51:47;22.33;;;17.88;;
19814;SDS011;10067;53.092;8.800;2023-04-15T07:54:14;22.40;;;18.20;;
19814;SDS011;10067;53.092;8.800;2023-04-15T07:56:40;21.17;;;17.27;;
19814;SDS011;10067;53.092;8.800;2023-04-15T07:59:07;20.50;;;16.40;;
19814;SDS011;10067;53.092;8.800;2023-04-15T08:01:35;19.65;;;15.55;;
19814;SDS011;10067;53.092;8.800;2023-04-15T08:04:01;19.05;;;15.55;;
19814;SDS011;10067;53.092;8.800;2023-04-15T08:06:28;17.65;;;15.00;;
19814;SDS011;10067;53.092;8.800;2023-04-15T08:08:54;19.17;;;16.50;;
19814;SDS011;10067;53.092;8.800;2023-04-15T08:11:21;19.70;;;16.17;;
19814;SDS011;10067;53.092;8.800;2023-04-15T08:13:48;15.93;;;14.25;;
19814;SDS011;10067;53.092;8.800;2023-04-15T08:16:16;16.02;;;14.32;;
19814;SDS011;10067;53.092;8.800;2023-04-15T08:18:45;15.10;;;13.52;;
19814;SDS011;10067;53.092;8.800;2023-04-15T08:21:11;16.52;;;14.23;;
19814;SDS011;10067;53.092;8.800;2023-04-15T08:23:38;15.40;;;13.65;;
19814;SDS011;10067;53.092;8.800;2023-04-15T08:26:04;15.18;;;13.55;;
19814;SDS011;10067;53.092;8.800;2023-04-15T08:28:30;13.55;;;12.15;;
19814;SDS011;10067;53.092;8.800;2023-04-15T08:30:57;13.88;;;12.35;;
19814;SDS011;10067;53.092;8.800;2023-04-15T08:33:24;13.02;;;11.73;;
19814;SDS011;10067;53.092;8.800;2023-04-15T08:35:52;12.88;;;11.45;;
19814;SDS011;10067;53.092;8.800;2023-04-15T08:38:18;14.15;;;12.43;;
19814;SDS011;10067;53.092;8.800;2023-04-15T08:40:45;13.95;;;12.25;;
19814;SDS011;10067;53.092;8.800;2023-04-15T08:43:12;12.18;;;10.85;;
19814;SDS011;10067;53.092;8.800;2023-04-15T08:45:40;14.10;;;12.52;;
19814;SDS011;10067;53.092;8.800;2023-04-15T08:48:07;13.50;;;11.55;;
19814;SDS011;10067;53.092;8.800;2023-04-15T08:50:34;13.48;;;11.80;;
19814;SDS011;10067;53.092;8.800;2023-04-15T08:53:02;13.63;;;11.98;;
19814;SDS011;10067;53.092;8.800;2023-04-15T08:55:29;14.38;;;12.35;;
19814;SDS011;10067;53.092;8.800;2023-04-15T08:57:58;13.05;;;11.60;;
19814;SDS011;10067;53.092;8.800;2023-04-15T09:00:24;13.13;;;10.52;;
19814;SDS011;10067;53.092;8.800;2023-04-15T09:02:51;13.45;;;11.02;;
19814;SDS011;10067;53.092;8.800;2023-04-15T09:05:18;12.80;;;11.00;;
19814;SDS011;10067;53.092;8.800;2023-04-15T09:07:45;12.77;;;11.38;;
19814;SDS011;10067;53.092;8.800;2023-04-15T09:10:14;16.00;;;10.48;;
19814;SDS011;10067;53.092;8.800;2023-04-15T09:12:40;12.75;;;9.60;;
19814;SDS011;10067;53.092;8.800;2023-04-15T09:15:07;10.60;;;9.02;;
19814;SDS011;10067;53.092;8.800;2023-04-15T09:17:36;11.85;;;10.20;;
19814;SDS011;10067;53.092;8.800;2023-04-15T09:20:07;12.20;;;10.70;;
19814;SDS011;10067;53.092;8.800;2023-04-15T09:22:34;11.75;;;10.55;;
19814;SDS011;10067;53.092;8.800;2023-04-15T09:25:01;14.65;;;10.75;;
19814;SDS011;10067;53.092;8.800;2023-04-15T09:27:29;11.50;;;10.27;;
19814;SDS011;10067;53.092;8.800;2023-04-15T09:29:55;12.25;;;10.30;;
19814;SDS011;10067;53.092;8.800;2023-04-15T09:32:22;13.18;;;9.63;;
19814;SDS011;10067;53.092;8.800;2023-04-15T09:34:49;12.07;;;9.50;;
19814;SDS011;10067;53.092;8.800;2023-04-15T09:37:15;10.68;;;9.57;;
19814;SDS011;10067;53.092;8.800;2023-04-15T09:39:45;12.77;;;9.02;;
19814;SDS011;10067;53.092;8.800;2023-04-15T09:42:12;10.50;;;9.38;;
19814;SDS011;10067;53.092;8.800;2023-04-15T09:44:40;10.90;;;9.75;;
19814;SDS011;10067;53.092;8.800;2023-04-15T09:47:07;10.27;;;8.80;;
19814;SDS011;10067;53.092;8.800;2023-04-15T09:49:33;9.13;;;8.15;;
19814;SDS011;10067;53.092;8.800;2023-04-15T09:52:00;9.70;;;8.68;;
19814;SDS011;10067;53.092;8.800;2023-04-15T09:54:31;11.77;;;8.52;;
19814;SDS011;10067;53.092;8.800;2023-04-15T09:57:03;9.60;;;8.38;;
19814;SDS011;10067;53.092;8.800;2023-04-15T09:59:30;9.23;;;8.02;;
19814;SDS011;10067;53.092;8.800;2023-04-15T10:01:58;10.00;;;8.20;;
19814;SDS011;10067;53.092;8.800;2023-04-15T10:04:27;10.68;;;9.30;;
19814;SDS011;10067;53.092;8.800;2023-04-15T10:06:55;9.85;;;8.73;;
19814;SDS011;10067;53.092;8.800;2023-04-15T10:09:22;10.48;;;9.00;;
19814;SDS011;10067;53.092;8.800;2023-04-15T10:11:48;9.32;;;8.30;;
19814;SDS011;10067;53.092;8.800;2023-04-15T10:14:17;11.40;;;9.57;;
19814;SDS011;10067;53.092;8.800;2023-04-15T10:16:44;10.35;;;9.30;;
19814;SDS011;10067;53.092;8.800;2023-04-15T10:19:14;11.75;;;10.27;;
19814;SDS011;10067;53.092;8.800;2023-04-15T10:21:41;12.27;;;10.15;;
19814;SDS011;10067;53.092;8.800;2023-04-15T10:24:09;12.18;;;10.63;;
19814;SDS011;10067;53.092;8.800;2023-04-15T10:26:36;12.52;;;11.23;;
19814;SDS011;10067;53.092;8.800;2023-04-15T10:29:03;11.73;;;10.25;;
19814;SDS011;10067;53.092;8.800;2023-04-15T10:31:29;14.30;;;11.55;;
19814;SDS011;10067;53.092;8.800;2023-04-15T10:33:56;13.93;;;11.52;;
19814;SDS011;10067;53.092;8.800;2023-04-15T10:36:29;16.30;;;11.68;;
19814;SDS011;10067;53.092;8.800;2023-04-15T10:38:55;13.95;;;11.70;;
19814;SDS011;10067;53.092;8.800;2023-04-15T10:41:22;17.48;;;12.10;;
19814;SDS011;10067;53.092;8.800;2023-04-15T10:43:50;16.65;;;11.98;;
19814;SDS011;10067;53.092;8.800;2023-04-15T10:46:23;14.18;;;12.07;;
19814;SDS011;10067;53.092;8.800;2023-04-15T10:48:50;15.05;;;12.43;;
19814;SDS011;10067;53.092;8.800;2023-04-15T10:51:25;17.40;;;12.77;;
19814;SDS011;10067;53.092;8.800;2023-04-15T10:53:56;16.73;;;12.80;;
19814;SDS011;10067;53.092;8.800;2023-04-15T10:56:23;16.77;;;12.68;;
19814;SDS011;10067;53.092;8.800;2023-04-15T10:58:50;16.13;;;13.07;;
19814;SDS011;10067;53.092;8.800;2023-04-15T11:01:18;17.05;;;13.27;;
19814;SDS011;10067;53.092;8.800;2023-04-15T11:03:44;17.05;;;12.48;;
19814;SDS011;10067;53.092;8.800;2023-04-15T11:06:11;19.48;;;13.10;;
19814;SDS011;10067;53.092;8.800;2023-04-15T11:08:58;17.25;;;13.63;;
19814;SDS011;10067;53.092;8.800;2023-04-15T11:14:13;17.55;;;13.80;;
19814;SDS011;10067;53.092;8.800;2023-04-15T11:16:41;20.58;;;14.70;;
19814;SDS011;10067;53.092;8.800;2023-04-15T11:19:08;19.15;;;14.40;;
19814;SDS011;10067;53.092;8.800;2023-04-15T11:21:35;20.00;;;14.73;;
19814;SDS011;10067;53.092;8.800;2023-04-15T11:24:03;20.17;;;14.10;;
19814;SDS011;10067;53.092;8.800;2023-04-15T11:26:29;23.88;;;15.93;;
19814;SDS011;10067;53.092;8.800;2023-04-15T11:28:56;24.73;;;16.50;;
19814;SDS011;10067;53.092;8.800;2023-04-15T11:31:25;24.92;;;16.92;;
19814;SDS011;10067;53.092;8.800;2023-04-15T11:33:53;28.63;;;18.25;;
19814;SDS011;10067;53.092;8.800;2023-04-15T11:36:22;27.77;;;17.77;;
19814;SDS011;10067;53.092;8.800;2023-04-15T11:38:50;26.75;;;17.65;;
19814;SDS011;10067;53.092;8.800;2023-04-15T11:41:20;27.27;;;18.77;;
19814;SDS011;10067;53.092;8.800;2023-04-15T11:43:47;28.58;;;19.20;;
19814;SDS011;10067;53.092;8.800;2023-04-15T11:46:13;34.90;;;20.63;;
19814;SDS011;10067;53.092;8.800;2023-04-15T11:48:41;31.30;;;21.38;;
19814;SDS011;10067;53.092;8.800;2023-04-15T11:51:08;38.08;;;21.67;;
19814;SDS011;10067;53.092;8.800;2023-04-15T11:53:35;35.65;;;21.60;;
19814;SDS011;10067;53.092;8.800;2023-04-15T11:56:02;35.20;;;21.95;;
19814;SDS011;10067;53.092;8.800;2023-04-15T11:58:30;37.05;;;23.25;;
19814;SDS011;10067;53.092;8.800;2023-04-15T12:00:57;39.03;;;23.90;;
19814;SDS011;10067;53.092;8.800;2023-04-15T12:03:24;34.53;;;23.13;;
19814;SDS011;10067;53.092;8.800;2023-04-15T12:09:03;43.00;;;25.75;;
19814;SDS011;10067;53.092;8.800;2023-04-15T12:11:30;42.83;;;26.38;;
19814;SDS011;10067;53.092;8.800;2023-04-15T12:14:01;43.78;;;26.73;;
19814;SDS011;10067;53.092;8.800;2023-04-15T12:16:28;43.80;;;26.75;;
19814;SDS011;10067;53.092;8.800;2023-04-15T12:18:55;42.85;;;26.38;;
19814;SDS011;10067;53.092;8.800;2023-04-15T12:21:23;45.28;;;28.60;;
19814;SDS011;10067;53.092;8.800;2023-04-15T12:23:50;46.97;;;29.15;;
19814;SDS011;10067;53.092;8.800;2023-04-15T12:26:17;43.08;;;28.42;;
19814;SDS011;10067;53.092;8.800;2023-04-15T12:28:43;52.58;;;32.33;;
19814;SDS011;10067;53.092;8.800;2023-04-15T12:31:12;52.47;;;30.88;;
19814;SDS011;10067;53.092;8.800;2023-04-15T12:33:39;55.15;;;31.83;;
19814;SDS011;10067;53.092;8.800;2023-04-15T12:36:05;54.97;;;32.35;;
19814;SDS011;10067;53.092;8.800;2023-04-15T12:38:32;52.80;;;31.38;;
19814;SDS011;10067;53.092;8.800;2023-04-15T12:40:58;58.00;;;32.90;;
19814;SDS011;10067;53.092;8.800;2023-04-15T12:43:25;62.72;;;34.13;;
19814;SDS011;10067;53.092;8.800;2023-04-15T12:45:51;60.03;;;33.75;;
19814;SDS011;10067;53.092;8.800;2023-04-15T12:48:19;58.92;;;33.47;;
19814;SDS011;10067;53.092;8.800;2023-04-15T12:50:46;56.72;;;34.05;;
19814;SDS011;10067;53.092;8.800;2023-04-15T12:53:12;60.35;;;34.75;;
19814;SDS011;10067;53.092;8.800;2023-04-15T12:55:39;55.45;;;32.50;;
19814;SDS011;10067;53.092;8.800;2023-04-15T12:58:05;59.75;;;34.17;;
19814;SDS011;10067;53.092;8.800;2023-04-15T13:00:32;63.85;;;35.33;;
19814;SDS011;10067;53.092;8.800;2023-04-15T13:02:58;55.85;;;33.72;;
19814;SDS011;10067;53.092;8.800;2023-04-15T13:05:26;57.70;;;34.38;;
19814;SDS011;10067;53.092;8.800;2023-04-15T13:07:52;59.70;;;33.90;;
19814;SDS011;10067;53.092;8.800;2023-04-15T13:10:22;52.78;;;33.90;;
19814;SDS011;10067;53.092;8.800;2023-04-15T13:12:55;49.30;;;32.90;;
19814;SDS011;10067;53.092;8.800;2023-04-15T13:15:22;55.08;;;32.83;;
19814;SDS011;10067;53.092;8.800;2023-04-15T13:17:51;55.45;;;33.88;;
19814;SDS011;10067;53.092;8.800;2023-04-15T13:20:17;53.80;;;33.63;;
19814;SDS011;10067;53.092;8.800;2023-04-15T13:22:45;55.22;;;35.00;;
19814;SDS011;10067;53.092;8.800;2023-04-15T13:25:12;57.17;;;35.42;;
19814;SDS011;10067;53.092;8.800;2023-04-15T13:27:38;55.50;;;33.17;;
19814;SDS011;10067;53.092;8.800;2023-04-15T13:30:05;47.28;;;32.17;;
19814;SDS011;10067;53.092;8.800;2023-04-15T13:32:32;42.65;;;29.65;;
19814;SDS011;10067;53.092;8.800;2023-04-15T13:34:58;46.08;;;28.77;;
19814;SDS011;10067;53.092;8.800;2023-04-15T13:37:25;39.58;;;27.55;;
19814;SDS011;10067;53.092;8.800;2023-04-15T13:39:53;41.25;;;28.65;;
19814;SDS011;10067;53.092;8.800;2023-04-15T13:42:19;39.70;;;27.90;;
19814;SDS011;10067;53.092;8.800;2023-04-15T13:44:46;42.40;;;27.85;;
19814;SDS011;10067;53.092;8.800;2023-04-15T13:47:12;36.80;;;26.30;;
19814;SDS011;10067;53.092;8.800;2023-04-15T13:49:40;42.28;;;29.13;;
19814;SDS011;10067;53.092;8.800;2023-04-15T13:52:06;40.53;;;28.08;;
19814;SDS011;10067;53.092;8.800;2023-04-15T13:54:33;43.88;;;29.83;;
19814;SDS011;10067;53.092;8.800;2023-04-15T13:57:00;41.95;;;29.30;;
19814;SDS011;10067;53.092;8.800;2023-04-15T13:59:27;45.67;;;30.10;;
19814;SDS011;10067;53.092;8.800;2023-04-15T14:01:53;43.15;;;29.98;;
19814;SDS011;10067;53.092;8.800;2023-04-15T14:04:20;41.53;;;29.13;;
19814;SDS011;10067;53.092;8.800;2023-04-15T14:06:46;44.08;;;29.58;;
19814;SDS011;10067;53.092;8.800;2023-04-15T14:09:13;46.15;;;31.13;;
19814;SDS011;10067;53.092;8.800;2023-04-15T14:11:40;40.80;;;29.60;;
19814;SDS011;10067;53.092;8.800;2023-04-15T14:14:08;43.15;;;29.35;;
19814;SDS011;10067;53.092;8.800;2023-04-15T14:16:34;42.67;;;29.52;;
19814;SDS011;10067;53.092;8.800;2023-04-15T14:19:01;42.80;;;29.33;;
19814;SDS011;10067;53.092;8.800;2023-04-15T14:21:27;40.45;;;28.77;;
19814;SDS011;10067;53.092;8.800;2023-04-15T14:23:56;35.67;;;26.45;;
19814;SDS011;10067;53.092;8.800;2023-04-15T14:26:22;38.58;;;27.20;;
19814;SDS011;10067;53.092;8.800;2023-04-15T14:28:49;35.72;;;26.00;;